Main page
METAR-TAF:

METAR-TAF

Airports :

Bujumbura International Airport

Bujumbura, Burundi

latitude: 03-19S, longitude: 029-19E, elevation: 782 m

METAR: missing

Time: 13:33 (11:33 UTC)

Forecast

The report was made 6 hours and 33 minutes ago, at 05:00 UTC
Forecast valid from 15 at 06 UTC to 16 at 12 UTC
Wind 5 kt from the North
Visibility: 5000 m
haze
Becoming
from 15 at 08 UTC to 15 at 10 UTC
Wind 12 kt from the South with gusts up to 26 kt
Visibility: 7000 m
Few clouds at a height of 3500 ft
Becoming
from 15 at 16 UTC to 15 at 18 UTC
Wind 5 kt from the South
Visibility 10 km or more
no clouds below 1500 m and no cumulonimbus
Becoming
from 16 at 03 UTC to 16 at 05 UTC
Wind 3 kt from variable directions
Becoming
from 16 at 08 UTC to 16 at 10 UTC
Wind 10 kt from the South
Visibility: 7000 m

TAF: HBBA 150500Z 1506/1612 36005KT 5000 HZ NSC BECMG 1508/1510 18012G26KT 7000 FEW035 BECMG 1516/1518 18005KT CAVOK BECMG 1603/1605 VRB03KT 5000HZ NSC BECMG 1608/1610 18010KT 7000 NSC

Weather observations and forecasts of more than 4000 airports (METAR and TAF reports).

The available stations are represented by yellow and red dots on the map.

Hover mouse over dot to see the name of the station.

Then click to see weather observations and forecasts.

To change the map : click on the green buttons with a black cross to zoom in, on the green button with a dash to zoom out, or on the green arrows for adjacent maps.


METAR-TAF: